Time;durP1;ratioP1;P1;durP2;ratioP2;P2;SDS_P1;SDS_P2;PMS_P1;PMS_P2;Temp;Humidity;BMP_temperature;BMP_pressure;BME280_temperature;BME280_humidity;BME280_pressure;Samples;Min_cycle;Max_cycle;Signal;HPM_P1;HPM_P2
2022/01/24 00:01:40;;;;;;;7.28;4.47;;;8.50;98.70;;;;;;5093087;28;20040;-84
2022/01/24 00:04:05;;;;;;;7.38;4.95;;;8.40;98.80;;;;;;5092811;28;20479;-83
2022/01/24 00:06:32;;;;;;;7.90;4.90;;;8.40;98.80;;;;;;5076261;28;20131;-83
2022/01/24 00:08:59;;;;;;;8.90;5.40;;;8.50;98.90;;;;;;5076210;28;20090;-83
2022/01/24 00:11:36;;;;;;;11.45;5.53;;;8.50;98.80;;;;;;5076741;28;20044;-83
2022/01/24 00:27:44;;;;;;;8.80;5.30;;;8.20;98.70;;;;;;5092878;28;20059;-83
2022/01/24 00:30:10;;;;;;;6.97;4.95;;;8.10;98.90;;;;;;5093196;28;20048;-83
2022/01/24 00:32:36;;;;;;;7.28;5.03;;;8.10;98.70;;;;;;5076030;28;20040;-83
2022/01/24 00:35:02;;;;;;;6.72;4.53;;;8.00;98.80;;;;;;5075798;28;20048;-83
2022/01/24 00:37:31;;;;;;;8.95;5.35;;;8.10;98.70;;;;;;5075461;28;20059;-83
2022/01/24 00:39:58;;;;;;;9.95;5.10;;;8.10;98.60;;;;;;5092717;28;20387;-83
2022/01/24 00:42:32;;;;;;;8.93;5.38;;;8.20;98.50;;;;;;5075892;28;20138;-84
2022/01/24 00:47:46;;;;;;;10.10;5.15;;;7.90;98.60;;;;;;5092763;28;20445;-84
2022/01/24 00:53:12;;;;;;;7.80;4.78;;;8.00;98.70;;;;;;5092243;28;20505;-83
2022/01/24 00:55:39;;;;;;;7.05;4.93;;;8.00;98.90;;;;;;5092099;28;20048;-84
2022/01/24 00:58:05;;;;;;;10.02;5.30;;;8.00;98.90;;;;;;5075793;28;20437;-84
2022/01/24 01:00:31;;;;;;;8.90;5.43;;;7.90;98.90;;;;;;5075339;28;20074;-84
2022/01/24 01:02:56;;;;;;;7.53;4.88;;;8.00;99.00;;;;;;5094552;28;20044;-83
2022/01/24 01:08:01;;;;;;;6.47;4.43;;;8.20;99.20;;;;;;5095923;28;20048;-83
2022/01/24 01:18:08;;;;;;;6.65;4.68;;;8.00;98.90;;;;;;5096053;28;20113;-83
2022/01/24 01:18:44;;;;;;;9.02;4.80;;;8.00;99.00;;;;;;5095929;28;20402;-84
2022/01/24 01:21:11;;;;;;;7.35;4.75;;;8.00;99.10;;;;;;5095742;28;20040;-84
2022/01/24 01:23:42;;;;;;;7.30;5.10;;;8.10;99.10;;;;;;5095665;28;20471;-83
2022/01/24 01:26:17;;;;;;;7.78;4.72;;;8.10;98.90;;;;;;5095188;28;20054;-83
2022/01/24 01:28:45;;;;;;;7.07;4.50;;;8.10;98.80;;;;;;5063486;28;20054;-84
2022/01/24 01:31:21;;;;;;;7.20;4.90;;;8.00;99.10;;;;;;5095806;28;20056;-84
2022/01/24 01:34:16;;;;;;;8.55;4.95;;;8.10;98.90;;;;;;5078838;28;20501;-84
2022/01/24 01:53:53;;;;;;;6.75;4.50;;;7.80;98.60;;;;;;5095368;28;20097;-84
2022/01/24 01:56:13;;;;;;;6.97;4.53;;;7.90;98.90;;;;;;5069539;28;20041;-83
2022/01/24 01:58:39;;;;;;;7.47;4.40;;;7.90;98.90;;;;;;5090079;28;20071;-83
2022/01/24 02:01:05;;;;;;;8.68;4.88;;;7.80;98.50;;;;;;5058344;28;20040;-83
2022/01/24 02:03:31;;;;;;;8.50;4.70;;;7.70;98.60;;;;;;5108631;28;20049;-84
2022/01/24 02:05:57;;;;;;;8.23;4.68;;;7.70;98.50;;;;;;5074535;28;20048;-83
2022/01/24 02:08:28;;;;;;;7.05;4.30;;;7.60;98.40;;;;;;5108219;28;20048;-83
2022/01/24 02:10:55;;;;;;;10.98;4.72;;;7.60;98.90;;;;;;5108752;28;20062;-84
2022/01/24 02:13:26;;;;;;;7.60;4.35;;;7.70;98.90;;;;;;5090794;28;20151;-84
2022/01/24 02:16:12;;;;;;;7.40;4.15;;;7.80;98.50;;;;;;5108892;28;20395;-84
2022/01/24 02:18:51;;;;;;;6.50;4.35;;;7.80;98.30;;;;;;5108349;28;20064;-84
2022/01/24 02:21:41;;;;;;;7.20;4.38;;;7.80;98.50;;;;;;5108352;28;20052;-84
2022/01/24 02:24:08;;;;;;;7.93;4.53;;;7.80;98.40;;;;;;5108387;28;20059;-84
2022/01/24 02:26:34;;;;;;;7.57;4.95;;;7.70;98.10;;;;;;5107898;28;20055;-83
2022/01/24 02:29:07;;;;;;;8.02;4.40;;;7.70;98.30;;;;;;5057613;28;20052;-83
2022/01/24 02:34:02;;;;;;;8.07;4.63;;;7.50;98.40;;;;;;5074119;28;20152;-83
2022/01/24 02:36:28;;;;;;;7.00;4.45;;;7.40;98.40;;;;;;5057366;28;20040;-83
2022/01/24 02:49:48;;;;;;;8.23;4.75;;;7.60;98.00;;;;;;5108109;28;20105;-83
2022/01/24 02:52:15;;;;;;;8.45;4.93;;;7.60;98.00;;;;;;5107796;28;20127;-83
2022/01/24 02:54:42;;;;;;;10.57;5.80;;;7.70;98.40;;;;;;5090452;28;20491;-83
2022/01/24 02:57:09;;;;;;;8.95;5.10;;;7.70;98.30;;;;;;5107466;28;20037;-84
2022/01/24 02:59:36;;;;;;;8.20;4.90;;;7.70;98.00;;;;;;5107633;28;20052;-84
2022/01/24 03:02:03;;;;;;;10.05;5.93;;;7.80;98.10;;;;;;5090743;28;20059;-84
2022/01/24 03:04:28;;;;;;;8.00;5.05;;;7.80;98.20;;;;;;5056897;28;20151;-83
2022/01/24 03:06:55;;;;;;;7.75;4.70;;;7.90;98.00;;;;;;5090652;28;20523;-83
2022/01/24 03:09:23;;;;;;;9.13;5.10;;;7.80;97.80;;;;;;5107039;28;20170;-83
2022/01/24 03:14:22;;;;;;;9.35;5.22;;;7.90;98.30;;;;;;5107735;28;20053;-83
2022/01/24 03:16:48;;;;;;;9.23;5.72;;;7.90;98.30;;;;;;5057639;28;20041;-84
2022/01/24 03:19:15;;;;;;;8.68;5.22;;;7.80;97.90;;;;;;5056760;28;20044;-84
2022/01/24 03:21:42;;;;;;;7.05;4.75;;;7.90;98.00;;;;;;5101903;27;20052;-83
2022/01/24 03:24:08;;;;;;;9.75;5.65;;;7.90;98.20;;;;;;5091907;28;20070;-83
2022/01/24 03:26:34;;;;;;;11.27;6.00;;;7.90;98.00;;;;;;5074235;28;20040;-83
2022/01/24 03:28:59;;;;;;;10.15;5.88;;;7.90;98.10;;;;;;5093454;28;20062;-83
2022/01/24 03:31:25;;;;;;;8.93;5.68;;;7.70;97.90;;;;;;5076558;28;20399;-83
2022/01/24 03:33:51;;;;;;;9.45;6.18;;;7.60;97.90;;;;;;5093405;28;20055;-83
2022/01/24 03:36:17;;;;;;;9.65;6.00;;;7.60;97.90;;;;;;5093030;28;20182;-83
2022/01/24 03:38:43;;;;;;;9.60;5.65;;;7.60;98.00;;;;;;5059719;28;20044;-83
2022/01/24 03:41:08;;;;;;;9.55;5.95;;;7.70;98.00;;;;;;5093238;28;20471;-83
2022/01/24 03:43:34;;;;;;;11.05;6.18;;;7.80;98.10;;;;;;5077684;28;20036;-83
2022/01/24 03:48:49;;;;;;;9.57;5.78;;;7.80;97.90;;;;;;5093262;28;20044;-83
2022/01/24 03:51:16;;;;;;;11.57;6.70;;;7.80;98.00;;;;;;5093164;28;20052;-83
2022/01/24 03:53:43;;;;;;;13.60;7.10;;;7.90;98.00;;;;;;5076139;28;20051;-84
2022/01/24 03:56:09;;;;;;;11.13;6.45;;;7.60;97.70;;;;;;5075635;28;20047;-84
2022/01/24 03:58:36;;;;;;;15.13;6.93;;;7.60;97.90;;;;;;5092898;28;20494;-84
2022/01/24 04:01:05;;;;;;;10.68;6.65;;;7.60;98.10;;;;;;5092956;28;20085;-84
2022/01/24 04:03:30;;;;;;;11.50;6.50;;;7.70;98.00;;;;;;5128443;27;20442;-84
2022/01/24 04:05:56;;;;;;;11.68;6.65;;;7.70;98.10;;;;;;5092956;28;20048;-84
2022/01/24 04:08:22;;;;;;;11.20;6.55;;;7.80;98.40;;;;;;5060181;28;20149;-83
2022/01/24 04:10:52;;;;;;;10.82;7.05;;;7.80;98.10;;;;;;5076360;28;20051;-83
2022/01/24 04:16:22;;;;;;;13.90;7.35;;;7.50;98.20;;;;;;5092861;28;20052;-84
2022/01/24 04:21:20;;;;;;;11.32;6.68;;;7.60;98.40;;;;;;5092755;28;20135;-84
2022/01/24 04:23:51;;;;;;;11.87;7.00;;;7.70;98.10;;;;;;5095442;28;20044;-83
2022/01/24 04:26:17;;;;;;;14.88;7.30;;;7.70;98.10;;;;;;5086902;28;20055;-83
2022/01/24 04:28:43;;;;;;;11.98;6.93;;;7.70;98.10;;;;;;5093062;28;20126;-83
2022/01/24 04:31:09;;;;;;;18.05;8.57;;;7.70;98.20;;;;;;5092711;28;20040;-83
2022/01/24 04:33:34;;;;;;;12.98;7.68;;;7.60;98.10;;;;;;5076156;28;20101;-84
2022/01/24 04:36:00;;;;;;;17.23;8.30;;;7.60;98.40;;;;;;5092617;28;20109;-84
2022/01/24 04:38:27;;;;;;;13.13;8.20;;;7.70;98.40;;;;;;5095535;28;20123;-84
2022/01/24 04:40:57;;;;;;;13.88;8.57;;;7.60;98.20;;;;;;5079706;28;20051;-84
2022/01/24 04:56:07;;;;;;;14.98;8.63;;;7.60;98.30;;;;;;5095909;28;20044;-84
2022/01/24 04:58:32;;;;;;;15.63;9.27;;;7.60;98.20;;;;;;5095981;28;20396;-84
2022/01/24 05:00:58;;;;;;;15.38;8.88;;;7.70;98.30;;;;;;5096227;28;20059;-84
2022/01/24 05:03:24;;;;;;;15.73;9.02;;;7.70;98.60;;;;;;5097090;28;20051;-84
2022/01/24 05:05:51;;;;;;;16.63;9.27;;;7.80;98.30;;;;;;5079298;28;20052;-84
2022/01/24 05:08:17;;;;;;;16.70;9.93;;;7.80;98.50;;;;;;5096336;28;20498;-84
2022/01/24 05:11:07;;;;;;;17.55;9.38;;;7.80;98.60;;;;;;5079477;28;20036;-84
2022/01/24 05:24:31;;;;;;;18.83;9.88;;;8.00;98.70;;;;;;5074575;28;20048;-83
2022/01/24 05:26:57;;;;;;;18.52;10.02;;;7.90;98.60;;;;;;5078796;28;20052;-84
2022/01/24 05:29:22;;;;;;;16.92;9.80;;;7.90;98.40;;;;;;5095709;28;20101;-84
2022/01/24 05:31:48;;;;;;;19.15;9.80;;;7.80;98.20;;;;;;5078250;28;20086;-84
2022/01/24 05:34:14;;;;;;;18.52;9.70;;;7.90;98.50;;;;;;5078705;28;20040;-84
2022/01/24 05:36:40;;;;;;;18.38;10.43;;;7.90;98.40;;;;;;5095448;28;20538;-83
2022/01/24 05:39:06;;;;;;;18.98;10.98;;;7.90;98.50;;;;;;5078654;28;20182;-84
2022/01/24 05:41:32;;;;;;;17.55;10.18;;;7.90;98.30;;;;;;5095342;28;20093;-84
2022/01/24 05:43:58;;;;;;;20.15;10.50;;;8.00;98.50;;;;;;5095085;28;20555;-84
2022/01/24 05:46:24;;;;;;;19.05;10.45;;;8.00;98.30;;;;;;5095716;28;20135;-84
2022/01/24 05:48:50;;;;;;;21.98;11.57;;;8.00;98.70;;;;;;5094289;28;20162;-84
2022/01/24 05:51:16;;;;;;;18.95;10.55;;;8.00;98.70;;;;;;5094970;28;20185;-84
2022/01/24 05:53:41;;;;;;;17.20;10.25;;;8.00;98.40;;;;;;5078352;28;20047;-84
2022/01/24 05:56:07;;;;;;;18.48;10.65;;;8.00;98.30;;;;;;5094506;28;20051;-84
2022/01/24 05:58:33;;;;;;;19.90;11.73;;;8.00;98.60;;;;;;5078309;28;20132;-84
2022/01/24 06:00:58;;;;;;;20.48;10.88;;;8.00;98.60;;;;;;5077947;28;20581;-84
2022/01/24 06:03:24;;;;;;;21.08;11.20;;;7.90;98.40;;;;;;5095268;28;20036;-83
2022/01/24 06:05:50;;;;;;;20.58;10.90;;;7.90;98.30;;;;;;5078029;28;20115;-84
2022/01/24 06:08:17;;;;;;;21.38;11.85;;;7.80;98.20;;;;;;5094429;28;20048;-84
2022/01/24 06:10:44;;;;;;;22.48;11.07;;;7.70;98.40;;;;;;5077994;28;20048;-84
2022/01/24 06:13:10;;;;;;;24.35;10.73;;;7.70;98.50;;;;;;5094598;28;20127;-84
2022/01/24 06:15:36;;;;;;;20.92;11.07;;;7.80;98.70;;;;;;5077873;28;20095;-84
2022/01/24 06:18:01;;;;;;;19.77;11.20;;;7.80;98.40;;;;;;5094464;28;20040;-84
2022/01/24 06:20:27;;;;;;;20.63;11.70;;;7.70;98.50;;;;;;5094799;28;20106;-84
2022/01/24 06:22:53;;;;;;;16.90;10.43;;;7.70;98.20;;;;;;5061239;28;20136;-84
2022/01/24 06:25:22;;;;;;;19.95;11.55;;;7.70;98.50;;;;;;5094307;28;20457;-84
2022/01/24 06:27:48;;;;;;;20.20;11.30;;;7.80;98.60;;;;;;5094455;28;20441;-84
2022/01/24 06:30:14;;;;;;;20.92;12.00;;;7.80;98.60;;;;;;5077638;28;20105;-84
2022/01/24 06:32:40;;;;;;;23.42;11.00;;;7.90;99.20;;;;;;5061695;28;20044;-84
2022/01/24 06:35:08;;;;;;;20.55;11.52;;;7.90;98.90;;;;;;5094502;28;20099;-84
2022/01/24 06:37:37;;;;;;;21.88;12.57;;;7.90;98.50;;;;;;5077527;28;20043;-84
2022/01/24 06:40:07;;;;;;;19.95;11.18;;;7.90;98.80;;;;;;5094706;28;20059;-84
2022/01/24 06:42:33;;;;;;;18.60;11.32;;;7.90;98.70;;;;;;5078236;28;20048;-84
2022/01/24 06:44:59;;;;;;;23.27;11.15;;;8.00;98.50;;;;;;5077339;28;20044;-84
2022/01/24 06:47:25;;;;;;;19.80;10.90;;;8.00;98.40;;;;;;5093976;28;20046;-84
2022/01/24 06:49:52;;;;;;;18.33;10.93;;;7.90;98.60;;;;;;5061093;28;20430;-84
2022/01/24 06:52:18;;;;;;;20.05;11.40;;;8.00;98.90;;;;;;5077702;28;20101;-84
2022/01/24 06:54:44;;;;;;;19.98;10.35;;;8.00;98.80;;;;;;5093226;28;20052;-84
2022/01/24 06:57:12;;;;;;;20.10;10.95;;;7.90;99.00;;;;;;5094114;28;20055;-84
2022/01/24 06:59:39;;;;;;;20.80;11.43;;;7.90;98.80;;;;;;5093918;28;20122;-84
2022/01/24 07:02:05;;;;;;;21.25;10.88;;;7.90;98.50;;;;;;5093551;28;20471;-84
2022/01/24 07:04:31;;;;;;;17.00;10.07;;;7.90;98.70;;;;;;5077029;28;20451;-84
2022/01/24 07:06:57;;;;;;;17.23;10.48;;;7.90;99.00;;;;;;5099780;28;20047;-82
2022/01/24 07:09:23;;;;;;;18.73;10.52;;;7.90;98.80;;;;;;5101251;28;20036;-83
2022/01/24 07:11:50;;;;;;;20.55;11.02;;;7.90;98.60;;;;;;5130453;27;20158;-84
2022/01/24 07:14:16;;;;;;;16.92;9.98;;;7.90;98.60;;;;;;5110804;27;20048;-84
2022/01/24 07:19:28;;;;;;;17.80;9.88;;;8.00;99.00;;;;;;5078770;28;20059;-84
2022/01/24 07:21:54;;;;;;;21.50;11.38;;;8.00;99.10;;;;;;5093705;28;20054;-84
2022/01/24 07:24:20;;;;;;;17.92;10.10;;;8.00;99.00;;;;;;5093514;28;20047;-83
2022/01/24 07:26:46;;;;;;;18.00;10.25;;;8.00;99.10;;;;;;5092990;28;20075;-83
2022/01/24 07:29:12;;;;;;;19.70;10.95;;;7.90;98.90;;;;;;5093551;28;20047;-83
2022/01/24 07:31:37;;;;;;;18.67;10.35;;;8.00;99.10;;;;;;5093515;28;20120;-84
2022/01/24 07:34:03;;;;;;;19.58;10.68;;;8.00;98.90;;;;;;5093634;28;20036;-83
2022/01/24 07:36:29;;;;;;;19.67;10.52;;;8.10;98.90;;;;;;5093080;28;20036;-83
2022/01/24 07:38:54;;;;;;;20.88;11.40;;;8.00;98.80;;;;;;5093359;28;20055;-84
2022/01/24 07:41:24;;;;;;;17.25;10.38;;;8.00;98.80;;;;;;5093239;28;20543;-84
2022/01/24 07:43:50;;;;;;;14.45;9.48;;;8.00;98.80;;;;;;5093146;28;20139;-84
2022/01/24 07:46:16;;;;;;;17.95;11.18;;;8.00;98.50;;;;;;5093283;28;20051;-84
2022/01/24 07:48:42;;;;;;;18.05;10.80;;;8.00;98.60;;;;;;5076203;28;20368;-84
2022/01/24 07:51:08;;;;;;;18.33;10.57;;;8.00;98.40;;;;;;5076231;28;20047;-84
2022/01/24 07:53:33;;;;;;;18.23;10.13;;;8.00;98.40;;;;;;5093282;28;20047;-84
2022/01/24 07:55:59;;;;;;;18.98;10.60;;;8.00;98.50;;;;;;5075702;28;20048;-84
2022/01/24 07:58:25;;;;;;;17.73;10.68;;;8.00;98.50;;;;;;5076155;28;20467;-84
2022/01/24 08:00:51;;;;;;;21.48;11.13;;;8.10;98.40;;;;;;5092892;28;20048;-84
2022/01/24 08:03:17;;;;;;;20.02;10.63;;;8.10;98.20;;;;;;5092590;28;20127;-84
2022/01/24 08:05:43;;;;;;;22.50;10.73;;;8.00;98.50;;;;;;5076161;28;20127;-84
2022/01/24 08:08:09;;;;;;;18.08;10.45;;;8.00;98.40;;;;;;5092891;28;20051;-84
2022/01/24 08:10:35;;;;;;;19.63;10.55;;;7.90;98.80;;;;;;5092693;28;20040;-84
2022/01/24 08:13:01;;;;;;;19.35;10.05;;;8.00;99.00;;;;;;5091870;28;20055;-84
2022/01/24 08:15:27;;;;;;;19.15;10.80;;;8.00;98.90;;;;;;5076250;28;20094;-84
2022/01/24 08:17:53;;;;;;;17.08;10.23;;;8.00;98.90;;;;;;5075963;28;20505;-84
2022/01/24 08:20:20;;;;;;;19.65;10.55;;;8.00;98.90;;;;;;5092751;28;20113;-84
2022/01/24 08:22:46;;;;;;;18.52;10.90;;;8.00;98.50;;;;;;5076082;28;20061;-84
2022/01/24 08:25:12;;;;;;;18.05;10.50;;;8.00;98.70;;;;;;5092252;28;20048;-83
2022/01/24 08:27:38;;;;;;;17.27;10.10;;;8.00;98.90;;;;;;5092934;28;20055;-83
2022/01/24 08:30:07;;;;;;;19.30;10.65;;;8.00;98.80;;;;;;5092866;28;20040;-84
2022/01/24 08:32:32;;;;;;;18.17;10.40;;;7.90;98.60;;;;;;5075817;28;20052;-84
2022/01/24 08:34:58;;;;;;;17.35;9.93;;;7.90;98.70;;;;;;5092587;28;20105;-84
2022/01/24 08:37:24;;;;;;;18.00;10.82;;;8.00;98.90;;;;;;5093187;28;20041;-84
2022/01/24 08:39:50;;;;;;;20.05;11.23;;;8.00;98.60;;;;;;5093363;28;20047;-84
2022/01/24 08:42:23;;;;;;;18.92;10.75;;;8.00;99.10;;;;;;5075895;28;20130;-84
2022/01/24 08:47:23;;;;;;;20.08;11.13;;;8.10;98.90;;;;;;5076933;28;20052;-84
2022/01/24 08:49:50;;;;;;;19.52;10.85;;;8.10;98.60;;;;;;5092514;28;20040;-85
2022/01/24 08:52:16;;;;;;;16.92;10.15;;;8.10;98.60;;;;;;5092441;28;20118;-73
2022/01/24 08:54:41;;;;;;;16.73;10.45;;;8.10;98.50;;;;;;5091998;28;20052;-77
2022/01/24 08:57:07;;;;;;;18.13;10.32;;;8.00;98.30;;;;;;5092170;28;20044;-78
2022/01/24 08:59:34;;;;;;;20.63;11.35;;;8.00;98.70;;;;;;5092426;28;20394;-73
2022/01/24 09:02:01;;;;;;;20.33;12.10;;;8.10;98.50;;;;;;5093491;28;20097;-73
2022/01/24 09:04:27;;;;;;;25.35;14.25;;;8.00;98.40;;;;;;5095238;28;20055;-75
2022/01/24 09:06:53;;;;;;;22.88;13.40;;;8.10;98.00;;;;;;5100939;28;20040;-75
2022/01/24 09:09:19;;;;;;;23.75;14.35;;;8.10;98.10;;;;;;5092827;28;20052;-78
2022/01/24 09:11:46;;;;;;;25.70;15.27;;;8.10;98.10;;;;;;5092254;28;20048;-78
2022/01/24 09:14:12;;;;;;;23.38;12.70;;;8.00;98.10;;;;;;5092993;28;20121;-78
2022/01/24 09:16:38;;;;;;;27.60;14.95;;;8.10;98.10;;;;;;5092084;28;20048;-78
2022/01/24 09:19:04;;;;;;;26.25;13.40;;;8.10;98.30;;;;;;5092129;28;20127;-78
2022/01/24 09:21:31;;;;;;;24.85;13.90;;;8.10;98.00;;;;;;5092168;28;20048;-78
2022/01/24 09:23:57;;;;;;;24.60;13.25;;;8.00;98.30;;;;;;5092363;28;20105;-78
2022/01/24 09:26:22;;;;;;;27.60;14.25;;;8.10;98.60;;;;;;5096330;28;20399;-78
2022/01/24 09:28:48;;;;;;;28.05;13.50;;;8.20;98.60;;;;;;5095549;28;20047;-78
2022/01/24 09:31:14;;;;;;;30.08;14.63;;;8.20;98.50;;;;;;5095644;28;20043;-78
2022/01/24 09:33:40;;;;;;;27.27;14.63;;;8.20;98.30;;;;;;5096650;28;20142;-78
2022/01/24 09:36:06;;;;;;;28.30;15.27;;;8.20;98.20;;;;;;5096408;28;20048;-78
2022/01/24 09:38:34;;;;;;;29.65;14.88;;;8.30;98.10;;;;;;5097344;28;20048;-75
2022/01/24 09:41:06;;;;;;;24.20;14.48;;;8.30;98.10;;;;;;5095352;28;20048;-78
2022/01/24 09:43:32;;;;;;;26.27;13.93;;;8.20;98.10;;;;;;5095755;28;20062;-78
2022/01/24 09:45:59;;;;;;;24.83;13.50;;;8.20;98.10;;;;;;5096317;28;20490;-78
2022/01/24 09:48:26;;;;;;;25.63;14.05;;;8.20;98.30;;;;;;5095780;28;20047;-78
2022/01/24 09:50:53;;;;;;;30.15;15.95;;;8.20;98.30;;;;;;5095199;28;20044;-78
2022/01/24 09:53:23;;;;;;;29.50;16.42;;;8.30;98.30;;;;;;5096297;28;20118;-77
2022/01/24 09:55:50;;;;;;;30.05;14.95;;;8.20;98.10;;;;;;5095831;28;20052;-79
2022/01/24 09:58:16;;;;;;;30.83;15.85;;;8.20;98.10;;;;;;5094779;28;20040;-77
2022/01/24 10:00:42;;;;;;;29.75;15.23;;;8.20;97.90;;;;;;5096801;28;20101;-77
2022/01/24 10:03:09;;;;;;;26.90;15.02;;;8.30;98.00;;;;;;5095348;28;20044;-77
2022/01/24 10:05:40;;;;;;;30.63;16.00;;;8.30;98.10;;;;;;5096304;28;20390;-78
2022/01/24 10:08:16;;;;;;;30.85;15.90;;;8.30;98.10;;;;;;5095286;28;20375;-78
2022/01/24 10:10:50;;;;;;;29.80;14.75;;;8.30;98.00;;;;;;5096244;28;20048;-78
2022/01/24 10:16:29;;;;;;;31.55;16.70;;;8.30;98.50;;;;;;5094990;28;20410;-78
2022/01/24 10:19:20;;;;;;;34.60;16.30;;;8.40;98.10;;;;;;5096305;28;20044;-78
2022/01/24 10:21:50;;;;;;;30.83;15.70;;;8.40;98.20;;;;;;5094683;28;20044;-78
2022/01/24 10:24:37;;;;;;;37.63;17.42;;;8.50;98.10;;;;;;5078048;28;20491;-77
2022/01/24 10:27:16;;;;;;;36.88;18.55;;;8.50;98.10;;;;;;5094264;28;20047;-78
2022/01/24 10:30:08;;;;;;;38.33;18.63;;;8.40;97.80;;;;;;5095465;28;20044;-78
2022/01/24 10:32:36;;;;;;;37.47;18.35;;;8.40;97.80;;;;;;5094589;28;20056;-78
2022/01/24 10:35:37;;;;;;;42.60;19.83;;;8.40;97.90;;;;;;5094912;28;20186;-78
2022/01/24 10:38:41;;;;;;;44.72;20.60;;;8.40;97.80;;;;;;5094053;28;20105;-77
2022/01/24 10:43:41;;;;;;;44.08;20.45;;;8.40;97.90;;;;;;5095226;28;20044;-77
2022/01/24 10:46:08;;;;;;;46.67;21.35;;;8.50;98.00;;;;;;5077308;28;20109;-78
2022/01/24 10:48:42;;;;;;;46.28;22.20;;;8.50;98.10;;;;;;5095179;28;20048;-77
2022/01/24 10:51:18;;;;;;;55.53;24.30;;;8.60;98.00;;;;;;5095393;28;20135;-78
2022/01/24 10:53:56;;;;;;;48.97;22.77;;;8.60;98.00;;;;;;5094131;28;20043;-77
2022/01/24 10:56:28;;;;;;;48.40;21.98;;;8.50;97.90;;;;;;5097607;28;20051;-78
2022/01/24 10:59:00;;;;;;;47.58;22.52;;;8.40;98.00;;;;;;5095208;28;20087;-78
2022/01/24 11:01:27;;;;;;;53.58;22.42;;;8.40;97.90;;;;;;5095129;28;20055;-74
2022/01/24 11:04:13;;;;;;;49.55;22.70;;;8.30;98.40;;;;;;5094787;28;20445;-76
2022/01/24 11:06:51;;;;;;;55.55;23.75;;;8.40;98.30;;;;;;5094489;28;20052;-76
2022/01/24 11:09:23;;;;;;;58.35;25.27;;;8.40;98.10;;;;;;5093862;28;20048;-76
2022/01/24 11:11:57;;;;;;;58.33;26.60;;;8.50;97.90;;;;;;5094741;28;20055;-76
2022/01/24 11:14:25;;;;;;;61.40;27.33;;;8.40;98.00;;;;;;5094628;28;20064;-76
2022/01/24 11:16:52;;;;;;;56.72;27.08;;;8.40;98.00;;;;;;5093454;28;20056;-76
2022/01/24 11:21:51;;;;;;;69.45;30.70;;;8.50;97.80;;;;;;5093538;28;20091;-75
2022/01/24 11:24:22;;;;;;;64.72;29.88;;;8.30;97.60;;;;;;5094466;28;20126;-75
2022/01/24 11:26:48;;;;;;;70.30;30.90;;;8.10;97.60;;;;;;5094216;28;20048;-76
2022/01/24 11:29:17;;;;;;;70.32;30.58;;;8.10;97.70;;;;;;5093436;28;20043;-71
2022/01/24 11:31:49;;;;;;;65.30;30.50;;;8.20;97.80;;;;;;5094285;28;20075;-69
2022/01/24 11:34:33;;;;;;;68.53;30.20;;;8.00;97.50;;;;;;5094295;28;20051;-70
2022/01/24 11:36:59;;;;;;;71.85;31.48;;;7.90;97.50;;;;;;5094180;28;20043;-70
2022/01/24 11:39:26;;;;;;;72.53;32.08;;;8.00;97.60;;;;;;5094201;28;20044;-71
2022/01/24 11:41:52;;;;;;;72.35;32.75;;;8.00;97.50;;;;;;5094099;28;20044;-71
2022/01/24 11:44:20;;;;;;;75.13;33.10;;;8.00;97.50;;;;;;5094400;28;20050;-70
2022/01/24 11:46:58;;;;;;;75.30;33.03;;;8.10;97.50;;;;;;5093290;28;20044;-70
2022/01/24 11:49:27;;;;;;;72.90;30.55;;;8.00;97.40;;;;;;5076287;28;20101;-70
2022/01/24 11:52:11;;;;;;;75.85;33.28;;;7.70;97.40;;;;;;5094287;28;20544;-70
2022/01/24 11:57:38;;;;;;;70.18;30.17;;;7.50;97.50;;;;;;5097740;28;20461;-72
2022/01/24 12:00:04;;;;;;;59.67;27.33;;;7.50;97.60;;;;;;5093166;28;20044;-70
2022/01/24 12:02:38;;;;;;;64.72;29.60;;;7.70;97.10;;;;;;5094089;28;20051;-71
2022/01/24 12:05:13;;;;;;;58.78;26.98;;;7.60;97.40;;;;;;5093207;28;20051;-70
2022/01/24 12:07:43;;;;;;;57.92;27.67;;;7.70;96.90;;;;;;5093494;28;20090;-71
2022/01/24 12:10:25;;;;;;;61.38;29.35;;;7.50;96.90;;;;;;5092611;28;20093;-71
2022/01/24 12:13:00;;;;;;;60.58;29.67;;;7.40;96.90;;;;;;5092502;28;20052;-71
2022/01/24 12:15:38;;;;;;;74.90;31.88;;;7.30;96.90;;;;;;5092925;28;20130;-71
2022/01/24 12:18:23;;;;;;;76.22;32.65;;;7.30;97.20;;;;;;5094079;28;20097;-70
2022/01/24 12:20:59;;;;;;;70.85;31.98;;;7.20;97.50;;;;;;5093759;28;20048;-71
2022/01/24 12:23:43;;;;;;;69.35;31.10;;;7.30;97.30;;;;;;5093796;28;20044;-70
2022/01/24 12:26:19;;;;;;;69.32;29.88;;;7.40;97.60;;;;;;5093324;28;20117;-70
2022/01/24 12:28:46;;;;;;;67.70;30.50;;;7.60;97.50;;;;;;5094147;28;20047;-70
2022/01/24 12:31:35;;;;;;;73.45;32.97;;;7.80;97.10;;;;;;5093602;28;20501;-70
2022/01/24 12:34:10;;;;;;;68.22;31.52;;;7.80;97.10;;;;;;5092540;28;20597;-70
2022/01/24 12:36:39;;;;;;;70.50;32.03;;;7.90;97.00;;;;;;5092678;28;20479;-70
2022/01/24 12:39:12;;;;;;;63.83;28.73;;;7.80;96.70;;;;;;5093515;28;20161;-70
2022/01/24 12:41:47;;;;;;;67.43;31.15;;;7.60;96.80;;;;;;5092516;28;20472;-70
2022/01/24 12:47:03;;;;;;;67.07;29.65;;;7.30;96.90;;;;;;5093495;28;20062;-70
2022/01/24 12:49:30;;;;;;;66.80;29.77;;;7.00;96.80;;;;;;5093424;28;20052;-70
2022/01/24 12:52:00;;;;;;;60.80;28.15;;;6.90;97.00;;;;;;5093866;28;20387;-70
2022/01/24 12:54:30;;;;;;;62.58;28.88;;;7.00;97.00;;;;;;5093760;28;20043;-70
2022/01/24 12:57:01;;;;;;;68.22;31.02;;;7.20;97.10;;;;;;5091826;28;20392;-71
2022/01/24 12:59:27;;;;;;;64.90;30.27;;;7.30;97.00;;;;;;5096257;28;20059;-70
2022/01/24 13:01:56;;;;;;;60.13;29.15;;;7.50;96.80;;;;;;5097224;28;20044;-69
2022/01/24 13:04:37;;;;;;;66.32;30.83;;;7.50;96.90;;;;;;5097334;28;20044;-69
2022/01/24 13:07:07;;;;;;;66.88;31.33;;;7.70;97.10;;;;;;5097128;28;20090;-69
2022/01/24 13:09:35;;;;;;;69.38;31.55;;;7.90;97.10;;;;;;5097342;28;20368;-69
2022/01/24 13:12:07;;;;;;;62.38;29.90;;;8.00;96.80;;;;;;5097050;28;20080;-69
2022/01/24 13:14:49;;;;;;;66.40;30.60;;;7.70;96.60;;;;;;5097714;28;20121;-69
2022/01/24 13:25:23;;;;;;;69.25;32.55;;;7.80;96.70;;;;;;5095635;28;20060;-70
2022/01/24 13:27:51;;;;;;;68.32;31.50;;;7.80;96.50;;;;;;5097241;28;20040;-71
2022/01/24 13:30:31;;;;;;;65.65;32.03;;;7.60;96.70;;;;;;5096657;28;20055;-71
2022/01/24 13:33:00;;;;;;;67.88;31.73;;;7.60;96.80;;;;;;5096598;28;20046;-71
2022/01/24 13:35:32;;;;;;;72.97;32.42;;;7.80;96.90;;;;;;5096741;28;20044;-71
2022/01/24 13:38:06;;;;;;;77.28;33.05;;;7.90;96.60;;;;;;5095289;28;20055;-71
2022/01/24 13:43:44;;;;;;;77.68;31.80;;;7.60;96.40;;;;;;5095199;28;20047;-71
2022/01/24 13:46:13;;;;;;;73.97;32.72;;;7.40;96.40;;;;;;5095360;28;20074;-71
2022/01/24 13:48:58;;;;;;;77.95;33.65;;;7.40;96.80;;;;;;5096327;28;20105;-71
2022/01/24 13:51:35;;;;;;;73.18;31.63;;;7.50;96.80;;;;;;5096273;28;20123;-71
2022/01/24 13:54:03;;;;;;;70.40;30.73;;;7.50;97.20;;;;;;5095197;28;20449;-71
2022/01/24 13:56:31;;;;;;;66.45;30.17;;;7.60;96.90;;;;;;5094677;28;20056;-71
2022/01/24 13:59:18;;;;;;;65.45;27.42;;;7.50;96.80;;;;;;5096577;28;20051;-71
2022/01/24 14:02:01;;;;;;;58.80;27.67;;;7.60;96.80;;;;;;5095077;28;20043;-71
2022/01/24 14:04:53;;;;;;;57.72;26.02;;;7.60;96.80;;;;;;5096004;28;20117;-71
2022/01/24 14:07:29;;;;;;;57.65;26.25;;;7.70;96.30;;;;;;5094543;28;20044;-71
2022/01/24 14:09:57;;;;;;;58.55;26.55;;;7.80;96.40;;;;;;5094407;28;20052;-94
2022/01/24 14:12:31;;;;;;;57.40;26.52;;;7.70;96.00;;;;;;5094946;28;20056;-71
2022/01/24 14:15:12;;;;;;;64.05;27.45;;;7.70;96.70;;;;;;5096062;28;20052;-71
2022/01/24 14:20:14;;;;;;;65.38;29.35;;;7.40;96.60;;;;;;5094708;28;20090;-72
2022/01/24 14:22:46;;;;;;;59.35;28.08;;;7.50;96.90;;;;;;5094680;28;20105;-72
2022/01/24 14:25:17;;;;;;;59.25;28.00;;;7.50;96.90;;;;;;5094245;28;20044;-72
2022/01/24 14:27:49;;;;;;;58.45;28.42;;;7.60;96.80;;;;;;5094651;28;20139;-71
2022/01/24 14:30:16;;;;;;;60.13;26.65;;;7.60;96.60;;;;;;5094514;28;20527;-71
2022/01/24 14:33:01;;;;;;;60.03;26.92;;;7.60;96.60;;;;;;5095501;28;20140;-71
2022/01/24 14:35:28;;;;;;;57.88;25.70;;;7.70;96.60;;;;;;5094516;28;20054;-71
2022/01/24 14:37:55;;;;;;;54.35;24.88;;;7.70;96.40;;;;;;5094336;28;20048;-71
2022/01/24 14:40:51;;;;;;;56.10;25.85;;;7.60;96.30;;;;;;5094191;28;20060;-72
2022/01/24 14:46:14;;;;;;;53.08;24.10;;;7.60;96.10;;;;;;5094151;28;20056;-70
2022/01/24 14:48:50;;;;;;;51.15;22.55;;;7.40;96.30;;;;;;5077217;28;20122;-71
2022/01/24 14:51:18;;;;;;;50.00;23.15;;;7.60;96.90;;;;;;5095193;28;20047;-70
2022/01/24 14:53:44;;;;;;;44.72;21.27;;;7.70;96.40;;;;;;5094021;28;20051;-71
2022/01/24 14:56:13;;;;;;;45.75;22.88;;;7.70;96.80;;;;;;5093525;28;20146;-71
2022/01/24 14:58:39;;;;;;;55.83;24.95;;;7.80;96.70;;;;;;5094315;28;20391;-71
2022/01/24 15:01:05;;;;;;;50.20;23.85;;;7.70;96.00;;;;;;5093931;28;20055;-70
2022/01/24 15:03:30;;;;;;;51.40;23.25;;;7.30;96.20;;;;;;5077137;28;20040;-70